sensor_id;sensor_type;location;lat;lon;timestamp;temperature;humidity
47174;DHT22;36730;49.036;9.094;2023-05-29T00:01:58;26.00;49.70
47174;DHT22;36730;49.036;9.094;2023-05-29T00:04:24;26.10;49.80
47174;DHT22;36730;49.036;9.094;2023-05-29T00:06:49;26.00;49.70
47174;DHT22;36730;49.036;9.094;2023-05-29T00:09:15;26.00;49.70
47174;DHT22;36730;49.036;9.094;2023-05-29T00:11:41;26.00;49.80
47174;DHT22;36730;49.036;9.094;2023-05-29T00:14:06;26.00;49.80
47174;DHT22;36730;49.036;9.094;2023-05-29T00:16:32;26.00;49.80
47174;DHT22;36730;49.036;9.094;2023-05-29T00:18:57;25.90;49.70
47174;DHT22;36730;49.036;9.094;2023-05-29T00:21:23;25.90;49.70
47174;DHT22;36730;49.036;9.094;2023-05-29T00:23:48;25.90;49.80
47174;DHT22;36730;49.036;9.094;2023-05-29T00:26:14;25.90;49.80
47174;DHT22;36730;49.036;9.094;2023-05-29T00:28:42;26.00;49.90
47174;DHT22;36730;49.036;9.094;2023-05-29T00:31:07;25.90;49.90
47174;DHT22;36730;49.036;9.094;2023-05-29T00:33:33;25.90;49.90
47174;DHT22;36730;49.036;9.094;2023-05-29T00:35:58;25.90;49.90
47174;DHT22;36730;49.036;9.094;2023-05-29T00:38:24;25.90;49.90
47174;DHT22;36730;49.036;9.094;2023-05-29T00:40:49;25.90;49.90
47174;DHT22;36730;49.036;9.094;2023-05-29T00:43:15;25.90;50.00
47174;DHT22;36730;49.036;9.094;2023-05-29T00:45:40;25.90;50.10
47174;DHT22;36730;49.036;9.094;2023-05-29T00:48:06;25.80;50.00
47174;DHT22;36730;49.036;9.094;2023-05-29T00:50:32;25.80;49.90
47174;DHT22;36730;49.036;9.094;2023-05-29T00:52:58;25.90;49.90
47174;DHT22;36730;49.036;9.094;2023-05-29T00:55:25;25.80;50.00
47174;DHT22;36730;49.036;9.094;2023-05-29T00:57:51;25.80;50.00
47174;DHT22;36730;49.036;9.094;2023-05-29T01:00:16;25.80;50.10
47174;DHT22;36730;49.036;9.094;2023-05-29T01:02:43;25.80;50.00
47174;DHT22;36730;49.036;9.094;2023-05-29T01:05:10;25.80;49.90
47174;DHT22;36730;49.036;9.094;2023-05-29T01:07:37;25.80;50.00
47174;DHT22;36730;49.036;9.094;2023-05-29T01:10:02;25.80;50.00
47174;DHT22;36730;49.036;9.094;2023-05-29T01:12:33;25.80;50.20
47174;DHT22;36730;49.036;9.094;2023-05-29T01:15:13;25.70;50.00
47174;DHT22;36730;49.036;9.094;2023-05-29T01:20:27;25.70;50.10
47174;DHT22;36730;49.036;9.094;2023-05-29T01:23:08;25.70;50.10
47174;DHT22;36730;49.036;9.094;2023-05-29T01:28:22;25.70;50.10
47174;DHT22;36730;49.036;9.094;2023-05-29T01:30:51;25.60;50.10
47174;DHT22;36730;49.036;9.094;2023-05-29T01:33:19;25.70;50.10
47174;DHT22;36730;49.036;9.094;2023-05-29T01:35:44;25.60;50.10
47174;DHT22;36730;49.036;9.094;2023-05-29T01:38:10;25.60;50.70
47174;DHT22;36730;49.036;9.094;2023-05-29T01:40:35;25.60;50.10
47174;DHT22;36730;49.036;9.094;2023-05-29T01:43:01;25.60;50.10
47174;DHT22;36730;49.036;9.094;2023-05-29T01:45:27;25.60;50.10
47174;DHT22;36730;49.036;9.094;2023-05-29T01:47:53;25.60;50.10
47174;DHT22;36730;49.036;9.094;2023-05-29T01:50:19;25.50;50.10
47174;DHT22;36730;49.036;9.094;2023-05-29T01:52:45;25.50;50.10
47174;DHT22;36730;49.036;9.094;2023-05-29T01:55:11;25.60;50.20
47174;DHT22;36730;49.036;9.094;2023-05-29T01:57:36;25.60;50.20
47174;DHT22;36730;49.036;9.094;2023-05-29T02:00:03;25.50;50.10
47174;DHT22;36730;49.036;9.094;2023-05-29T02:02:40;25.50;50.10
47174;DHT22;36730;49.036;9.094;2023-05-29T02:05:06;25.50;50.20
47174;DHT22;36730;49.036;9.094;2023-05-29T02:07:32;25.50;50.20
47174;DHT22;36730;49.036;9.094;2023-05-29T02:09:57;25.50;50.20
47174;DHT22;36730;49.036;9.094;2023-05-29T02:12:23;25.50;50.20
47174;DHT22;36730;49.036;9.094;2023-05-29T02:14:48;25.40;50.10
47174;DHT22;36730;49.036;9.094;2023-05-29T02:17:14;25.50;50.20
47174;DHT22;36730;49.036;9.094;2023-05-29T02:19:40;25.40;50.20
47174;DHT22;36730;49.036;9.094;2023-05-29T02:22:06;25.40;50.20
47174;DHT22;36730;49.036;9.094;2023-05-29T02:24:32;25.40;50.10
47174;DHT22;36730;49.036;9.094;2023-05-29T02:26:57;25.40;50.20
47174;DHT22;36730;49.036;9.094;2023-05-29T02:29:23;25.40;50.60
47174;DHT22;36730;49.036;9.094;2023-05-29T02:31:48;25.40;50.30
47174;DHT22;36730;49.036;9.094;2023-05-29T02:34:14;25.40;50.30
47174;DHT22;36730;49.036;9.094;2023-05-29T02:36:39;25.40;50.30
47174;DHT22;36730;49.036;9.094;2023-05-29T02:39:05;25.40;50.30
47174;DHT22;36730;49.036;9.094;2023-05-29T02:41:31;25.40;50.30
47174;DHT22;36730;49.036;9.094;2023-05-29T02:43:56;25.30;50.20
47174;DHT22;36730;49.036;9.094;2023-05-29T02:46:21;25.30;50.30
47174;DHT22;36730;49.036;9.094;2023-05-29T02:48:47;25.30;50.20
47174;DHT22;36730;49.036;9.094;2023-05-29T02:51:13;25.30;50.20
47174;DHT22;36730;49.036;9.094;2023-05-29T02:53:39;25.30;50.30
47174;DHT22;36730;49.036;9.094;2023-05-29T02:56:05;25.30;50.20
47174;DHT22;36730;49.036;9.094;2023-05-29T02:58:31;25.30;50.20
47174;DHT22;36730;49.036;9.094;2023-05-29T03:00:58;25.30;50.20
47174;DHT22;36730;49.036;9.094;2023-05-29T03:03:23;25.20;50.20
47174;DHT22;36730;49.036;9.094;2023-05-29T03:05:49;25.20;50.20
47174;DHT22;36730;49.036;9.094;2023-05-29T03:08:14;25.20;50.20
47174;DHT22;36730;49.036;9.094;2023-05-29T03:10:40;25.20;50.20
47174;DHT22;36730;49.036;9.094;2023-05-29T03:13:06;25.20;50.30
47174;DHT22;36730;49.036;9.094;2023-05-29T03:15:31;25.20;50.20
47174;DHT22;36730;49.036;9.094;2023-05-29T03:17:57;25.20;50.30
47174;DHT22;36730;49.036;9.094;2023-05-29T03:20:22;25.20;50.30
47174;DHT22;36730;49.036;9.094;2023-05-29T03:22:48;25.20;50.30
47174;DHT22;36730;49.036;9.094;2023-05-29T03:25:14;25.20;50.30
47174;DHT22;36730;49.036;9.094;2023-05-29T03:27:40;25.10;50.20
47174;DHT22;36730;49.036;9.094;2023-05-29T03:30:06;25.10;50.20
47174;DHT22;36730;49.036;9.094;2023-05-29T03:32:32;25.10;50.20
47174;DHT22;36730;49.036;9.094;2023-05-29T03:34:57;25.10;50.20
47174;DHT22;36730;49.036;9.094;2023-05-29T03:37:23;25.10;50.20
47174;DHT22;36730;49.036;9.094;2023-05-29T03:39:48;25.10;50.20
47174;DHT22;36730;49.036;9.094;2023-05-29T03:42:13;25.10;50.20
47174;DHT22;36730;49.036;9.094;2023-05-29T03:44:40;25.10;50.40
47174;DHT22;36730;49.036;9.094;2023-05-29T03:47:06;25.10;50.30
47174;DHT22;36730;49.036;9.094;2023-05-29T03:49:34;25.00;50.30
47174;DHT22;36730;49.036;9.094;2023-05-29T03:51:59;25.10;50.40
47174;DHT22;36730;49.036;9.094;2023-05-29T03:54:25;25.00;50.30
47174;DHT22;36730;49.036;9.094;2023-05-29T03:56:51;25.00;50.30
47174;DHT22;36730;49.036;9.094;2023-05-29T03:59:16;25.00;50.30
47174;DHT22;36730;49.036;9.094;2023-05-29T04:01:42;25.00;50.20
47174;DHT22;36730;49.036;9.094;2023-05-29T04:04:07;25.00;50.30
47174;DHT22;36730;49.036;9.094;2023-05-29T04:06:33;25.00;50.20
47174;DHT22;36730;49.036;9.094;2023-05-29T04:08:58;25.00;50.30
47174;DHT22;36730;49.036;9.094;2023-05-29T04:11:24;25.00;50.20
47174;DHT22;36730;49.036;9.094;2023-05-29T04:13:49;25.00;50.20
47174;DHT22;36730;49.036;9.094;2023-05-29T04:16:15;25.00;50.20
47174;DHT22;36730;49.036;9.094;2023-05-29T04:18:41;25.00;50.20
47174;DHT22;36730;49.036;9.094;2023-05-29T04:21:06;25.00;50.30
47174;DHT22;36730;49.036;9.094;2023-05-29T04:23:32;25.00;50.30
47174;DHT22;36730;49.036;9.094;2023-05-29T04:25:57;25.00;50.30
47174;DHT22;36730;49.036;9.094;2023-05-29T04:28:23;25.00;50.30
47174;DHT22;36730;49.036;9.094;2023-05-29T04:30:48;25.00;50.30
47174;DHT22;36730;49.036;9.094;2023-05-29T04:33:14;25.00;50.30
47174;DHT22;36730;49.036;9.094;2023-05-29T04:35:40;25.00;50.30
47174;DHT22;36730;49.036;9.094;2023-05-29T04:38:08;25.00;50.30
47174;DHT22;36730;49.036;9.094;2023-05-29T04:40:34;25.00;50.30
47174;DHT22;36730;49.036;9.094;2023-05-29T04:43:02;25.00;50.40
47174;DHT22;36730;49.036;9.094;2023-05-29T04:45:27;25.00;50.40
47174;DHT22;36730;49.036;9.094;2023-05-29T04:47:53;25.00;50.40
47174;DHT22;36730;49.036;9.094;2023-05-29T04:50:21;25.00;50.40
47174;DHT22;36730;49.036;9.094;2023-05-29T04:52:48;25.00;50.40
47174;DHT22;36730;49.036;9.094;2023-05-29T04:55:13;25.00;50.40
47174;DHT22;36730;49.036;9.094;2023-05-29T04:57:39;25.00;50.50
47174;DHT22;36730;49.036;9.094;2023-05-29T05:00:06;25.00;50.60
47174;DHT22;36730;49.036;9.094;2023-05-29T05:02:33;25.00;50.50
47174;DHT22;36730;49.036;9.094;2023-05-29T05:04:58;25.00;50.70
47174;DHT22;36730;49.036;9.094;2023-05-29T05:07:24;25.00;50.60
47174;DHT22;36730;49.036;9.094;2023-05-29T05:09:49;25.00;50.70
47174;DHT22;36730;49.036;9.094;2023-05-29T05:12:15;25.00;50.60
47174;DHT22;36730;49.036;9.094;2023-05-29T05:14:41;25.00;50.60
47174;DHT22;36730;49.036;9.094;2023-05-29T05:17:06;25.00;50.60
47174;DHT22;36730;49.036;9.094;2023-05-29T05:19:32;25.00;50.60
47174;DHT22;36730;49.036;9.094;2023-05-29T05:21:57;25.10;50.60
47174;DHT22;36730;49.036;9.094;2023-05-29T05:24:23;25.00;50.80
47174;DHT22;36730;49.036;9.094;2023-05-29T05:26:48;25.10;50.60
47174;DHT22;36730;49.036;9.094;2023-05-29T05:29:13;25.10;50.60
47174;DHT22;36730;49.036;9.094;2023-05-29T05:31:39;25.10;50.50
47174;DHT22;36730;49.036;9.094;2023-05-29T05:34:04;25.10;50.50
47174;DHT22;36730;49.036;9.094;2023-05-29T05:36:30;25.10;50.60
47174;DHT22;36730;49.036;9.094;2023-05-29T05:38:56;25.10;50.50
47174;DHT22;36730;49.036;9.094;2023-05-29T05:41:21;25.10;50.50
47174;DHT22;36730;49.036;9.094;2023-05-29T05:43:47;25.10;50.50
47174;DHT22;36730;49.036;9.094;2023-05-29T05:46:12;25.10;50.50
47174;DHT22;36730;49.036;9.094;2023-05-29T05:48:39;25.20;50.60
47174;DHT22;36730;49.036;9.094;2023-05-29T05:51:05;25.10;50.60
47174;DHT22;36730;49.036;9.094;2023-05-29T05:53:30;25.20;50.80
47174;DHT22;36730;49.036;9.094;2023-05-29T05:55:56;25.20;50.70
47174;DHT22;36730;49.036;9.094;2023-05-29T05:58:21;25.20;50.60
47174;DHT22;36730;49.036;9.094;2023-05-29T06:00:46;25.20;50.70
47174;DHT22;36730;49.036;9.094;2023-05-29T06:03:12;25.20;50.60
47174;DHT22;36730;49.036;9.094;2023-05-29T06:05:38;25.20;50.70
47174;DHT22;36730;49.036;9.094;2023-05-29T06:08:06;25.20;50.80
47174;DHT22;36730;49.036;9.094;2023-05-29T06:10:33;25.20;50.80
47174;DHT22;36730;49.036;9.094;2023-05-29T06:12:59;25.20;50.80
47174;DHT22;36730;49.036;9.094;2023-05-29T06:15:24;25.20;50.70
47174;DHT22;36730;49.036;9.094;2023-05-29T06:17:50;25.20;50.80
47174;DHT22;36730;49.036;9.094;2023-05-29T06:20:17;25.20;50.70
47174;DHT22;36730;49.036;9.094;2023-05-29T06:22:42;25.30;50.80
47174;DHT22;36730;49.036;9.094;2023-05-29T06:25:08;25.30;50.80
47174;DHT22;36730;49.036;9.094;2023-05-29T06:27:35;25.30;50.80
47174;DHT22;36730;49.036;9.094;2023-05-29T06:30:00;25.30;50.80
47174;DHT22;36730;49.036;9.094;2023-05-29T06:32:25;25.30;50.80
47174;DHT22;36730;49.036;9.094;2023-05-29T06:34:53;25.30;50.70
47174;DHT22;36730;49.036;9.094;2023-05-29T06:37:19;25.40;50.80
47174;DHT22;36730;49.036;9.094;2023-05-29T06:39:44;25.30;50.70
47174;DHT22;36730;49.036;9.094;2023-05-29T06:42:10;25.40;50.70
47174;DHT22;36730;49.036;9.094;2023-05-29T06:44:35;25.40;50.70
47174;DHT22;36730;49.036;9.094;2023-05-29T06:47:01;25.40;50.80
47174;DHT22;36730;49.036;9.094;2023-05-29T06:49:26;25.40;50.70
47174;DHT22;36730;49.036;9.094;2023-05-29T06:51:52;25.40;50.70
47174;DHT22;36730;49.036;9.094;2023-05-29T06:54:17;25.40;50.70
47174;DHT22;36730;49.036;9.094;2023-05-29T06:56:43;25.40;50.70
47174;DHT22;36730;49.036;9.094;2023-05-29T06:59:08;25.50;50.80
47174;DHT22;36730;49.036;9.094;2023-05-29T07:01:34;25.40;50.60
47174;DHT22;36730;49.036;9.094;2023-05-29T07:03:59;25.50;50.70
47174;DHT22;36730;49.036;9.094;2023-05-29T07:06:25;25.50;50.60
47174;DHT22;36730;49.036;9.094;2023-05-29T07:08:51;25.50;50.70
47174;DHT22;36730;49.036;9.094;2023-05-29T07:11:16;25.50;50.70
47174;DHT22;36730;49.036;9.094;2023-05-29T07:13:41;25.50;50.60
47174;DHT22;36730;49.036;9.094;2023-05-29T07:16:07;25.50;50.60
47174;DHT22;36730;49.036;9.094;2023-05-29T07:18:32;25.60;50.50
47174;DHT22;36730;49.036;9.094;2023-05-29T07:20:59;25.60;50.50
47174;DHT22;36730;49.036;9.094;2023-05-29T07:23:25;25.60;50.50
47174;DHT22;36730;49.036;9.094;2023-05-29T07:25:50;25.60;50.40
47174;DHT22;36730;49.036;9.094;2023-05-29T07:28:16;25.70;50.50
47174;DHT22;36730;49.036;9.094;2023-05-29T07:30:41;25.70;50.40
47174;DHT22;36730;49.036;9.094;2023-05-29T07:33:07;25.70;50.40
47174;DHT22;36730;49.036;9.094;2023-05-29T07:35:32;25.70;50.50
47174;DHT22;36730;49.036;9.094;2023-05-29T07:37:58;25.80;50.50
47174;DHT22;36730;49.036;9.094;2023-05-29T07:40:24;25.80;50.40
47174;DHT22;36730;49.036;9.094;2023-05-29T07:42:50;25.80;50.30
47174;DHT22;36730;49.036;9.094;2023-05-29T07:45:15;25.80;50.30
47174;DHT22;36730;49.036;9.094;2023-05-29T07:47:41;25.80;50.30
47174;DHT22;36730;49.036;9.094;2023-05-29T07:50:07;25.90;50.40
47174;DHT22;36730;49.036;9.094;2023-05-29T07:52:33;25.90;50.20
47174;DHT22;36730;49.036;9.094;2023-05-29T07:54:58;25.90;50.40
47174;DHT22;36730;49.036;9.094;2023-05-29T07:57:24;25.90;50.30
47174;DHT22;36730;49.036;9.094;2023-05-29T07:59:50;26.00;50.20
47174;DHT22;36730;49.036;9.094;2023-05-29T08:02:16;26.00;50.30
47174;DHT22;36730;49.036;9.094;2023-05-29T08:04:42;26.00;50.30
47174;DHT22;36730;49.036;9.094;2023-05-29T08:07:07;26.00;50.10
47174;DHT22;36730;49.036;9.094;2023-05-29T08:09:34;26.10;50.30
47174;DHT22;36730;49.036;9.094;2023-05-29T08:12:00;26.10;50.30
47174;DHT22;36730;49.036;9.094;2023-05-29T08:14:26;26.10;50.20
47174;DHT22;36730;49.036;9.094;2023-05-29T08:16:51;26.10;50.20
47174;DHT22;36730;49.036;9.094;2023-05-29T08:19:17;26.20;50.30
47174;DHT22;36730;49.036;9.094;2023-05-29T08:21:42;26.20;50.10
47174;DHT22;36730;49.036;9.094;2023-05-29T08:24:08;26.20;50.00
47174;DHT22;36730;49.036;9.094;2023-05-29T08:26:34;26.20;50.10
47174;DHT22;36730;49.036;9.094;2023-05-29T08:29:00;26.30;50.10
47174;DHT22;36730;49.036;9.094;2023-05-29T08:31:26;26.30;50.00
47174;DHT22;36730;49.036;9.094;2023-05-29T08:33:52;26.30;50.00
47174;DHT22;36730;49.036;9.094;2023-05-29T08:36:18;26.40;50.00
47174;DHT22;36730;49.036;9.094;2023-05-29T08:38:48;26.40;50.00
47174;DHT22;36730;49.036;9.094;2023-05-29T08:41:21;26.30;49.90
47174;DHT22;36730;49.036;9.094;2023-05-29T08:43:47;26.40;49.80
47174;DHT22;36730;49.036;9.094;2023-05-29T08:46:13;26.40;49.90
47174;DHT22;36730;49.036;9.094;2023-05-29T08:48:40;26.50;50.00
47174;DHT22;36730;49.036;9.094;2023-05-29T08:51:07;26.50;49.90
47174;DHT22;36730;49.036;9.094;2023-05-29T08:53:33;26.50;49.90
47174;DHT22;36730;49.036;9.094;2023-05-29T08:55:59;26.60;50.00
47174;DHT22;36730;49.036;9.094;2023-05-29T08:58:25;26.50;49.90
47174;DHT22;36730;49.036;9.094;2023-05-29T09:00:51;26.60;49.90
47174;DHT22;36730;49.036;9.094;2023-05-29T09:03:16;26.60;49.80
47174;DHT22;36730;49.036;9.094;2023-05-29T09:05:42;26.70;49.90
47174;DHT22;36730;49.036;9.094;2023-05-29T09:08:09;26.70;49.90
47174;DHT22;36730;49.036;9.094;2023-05-29T09:10:40;26.70;49.70
47174;DHT22;36730;49.036;9.094;2023-05-29T09:13:06;26.70;49.70
47174;DHT22;36730;49.036;9.094;2023-05-29T09:15:32;26.80;49.70
47174;DHT22;36730;49.036;9.094;2023-05-29T09:17:58;26.80;49.50
47174;DHT22;36730;49.036;9.094;2023-05-29T09:20:24;26.90;49.40
47174;DHT22;36730;49.036;9.094;2023-05-29T09:22:53;26.90;50.00
47174;DHT22;36730;49.036;9.094;2023-05-29T09:25:22;26.90;49.30
47174;DHT22;36730;49.036;9.094;2023-05-29T09:27:55;27.00;49.30
47174;DHT22;36730;49.036;9.094;2023-05-29T09:33:16;27.00;49.20
47174;DHT22;36730;49.036;9.094;2023-05-29T09:35:43;27.10;49.30
47174;DHT22;36730;49.036;9.094;2023-05-29T09:38:10;27.10;49.20
47174;DHT22;36730;49.036;9.094;2023-05-29T09:40:36;27.10;49.20
47174;DHT22;36730;49.036;9.094;2023-05-29T09:43:02;27.20;49.20
47174;DHT22;36730;49.036;9.094;2023-05-29T09:45:30;27.20;49.10
47174;DHT22;36730;49.036;9.094;2023-05-29T09:47:56;27.30;49.10
47174;DHT22;36730;49.036;9.094;2023-05-29T09:50:25;27.30;49.10
47174;DHT22;36730;49.036;9.094;2023-05-29T09:52:50;27.30;49.00
47174;DHT22;36730;49.036;9.094;2023-05-29T09:55:20;27.40;49.00
47174;DHT22;36730;49.036;9.094;2023-05-29T09:57:46;27.40;48.90
47174;DHT22;36730;49.036;9.094;2023-05-29T10:00:12;27.40;48.90
47174;DHT22;36730;49.036;9.094;2023-05-29T10:02:39;27.40;48.80
47174;DHT22;36730;49.036;9.094;2023-05-29T10:05:08;27.50;48.80
47174;DHT22;36730;49.036;9.094;2023-05-29T10:07:35;27.50;48.80
47174;DHT22;36730;49.036;9.094;2023-05-29T10:10:02;27.50;48.70
47174;DHT22;36730;49.036;9.094;2023-05-29T10:12:28;27.60;48.70
47174;DHT22;36730;49.036;9.094;2023-05-29T10:14:57;27.60;48.70
47174;DHT22;36730;49.036;9.094;2023-05-29T10:17:25;27.60;48.70
47174;DHT22;36730;49.036;9.094;2023-05-29T10:19:52;27.60;48.60
47174;DHT22;36730;49.036;9.094;2023-05-29T10:22:20;27.70;48.60
47174;DHT22;36730;49.036;9.094;2023-05-29T10:24:45;27.70;48.50
47174;DHT22;36730;49.036;9.094;2023-05-29T10:27:12;27.70;48.50
47174;DHT22;36730;49.036;9.094;2023-05-29T10:29:40;27.80;48.40
47174;DHT22;36730;49.036;9.094;2023-05-29T10:37:29;27.90;48.20
47174;DHT22;36730;49.036;9.094;2023-05-29T10:40:03;27.90;48.80
47174;DHT22;36730;49.036;9.094;2023-05-29T10:42:40;28.00;48.10
47174;DHT22;36730;49.036;9.094;2023-05-29T10:45:06;28.00;48.10
47174;DHT22;36730;49.036;9.094;2023-05-29T10:47:31;28.00;48.00
47174;DHT22;36730;49.036;9.094;2023-05-29T10:50:00;28.10;48.00
47174;DHT22;36730;49.036;9.094;2023-05-29T10:52:30;28.10;48.00
47174;DHT22;36730;49.036;9.094;2023-05-29T10:54:56;28.10;47.90
47174;DHT22;36730;49.036;9.094;2023-05-29T10:57:22;28.10;47.80
47174;DHT22;36730;49.036;9.094;2023-05-29T10:59:56;28.20;47.80
47174;DHT22;36730;49.036;9.094;2023-05-29T11:02:22;28.20;47.70
47174;DHT22;36730;49.036;9.094;2023-05-29T11:07:33;28.20;47.50
47174;DHT22;36730;49.036;9.094;2023-05-29T11:10:10;28.30;47.50
47174;DHT22;36730;49.036;9.094;2023-05-29T11:12:36;28.30;47.40
47174;DHT22;36730;49.036;9.094;2023-05-29T11:15:20;28.30;47.30
47174;DHT22;36730;49.036;9.094;2023-05-29T11:17:46;28.30;47.20
47174;DHT22;36730;49.036;9.094;2023-05-29T11:25:24;28.50;47.00
47174;DHT22;36730;49.036;9.094;2023-05-29T11:27:49;28.50;46.90
47174;DHT22;36730;49.036;9.094;2023-05-29T11:30:20;28.50;46.80
47174;DHT22;36730;49.036;9.094;2023-05-29T11:32:46;28.50;46.70
47174;DHT22;36730;49.036;9.094;2023-05-29T11:35:15;28.60;46.60
47174;DHT22;36730;49.036;9.094;2023-05-29T11:37:42;28.60;46.50
47174;DHT22;36730;49.036;9.094;2023-05-29T11:40:12;28.60;46.40
47174;DHT22;36730;49.036;9.094;2023-05-29T11:42:42;28.70;46.40
47174;DHT22;36730;49.036;9.094;2023-05-29T11:47:59;28.70;46.10
47174;DHT22;36730;49.036;9.094;2023-05-29T11:50:23;28.70;46.10
47174;DHT22;36730;49.036;9.094;2023-05-29T11:52:49;28.70;45.90
47174;DHT22;36730;49.036;9.094;2023-05-29T11:55:15;28.80;45.90
47174;DHT22;36730;49.036;9.094;2023-05-29T11:57:41;28.80;45.80
47174;DHT22;36730;49.036;9.094;2023-05-29T12:00:06;28.80;45.70
47174;DHT22;36730;49.036;9.094;2023-05-29T12:02:32;28.80;45.60
47174;DHT22;36730;49.036;9.094;2023-05-29T12:05:04;28.80;45.50
47174;DHT22;36730;49.036;9.094;2023-05-29T12:07:30;28.90;45.50
47174;DHT22;36730;49.036;9.094;2023-05-29T12:09:55;28.90;45.40
47174;DHT22;36730;49.036;9.094;2023-05-29T12:12:26;28.90;45.30
47174;DHT22;36730;49.036;9.094;2023-05-29T12:14:52;28.90;45.10
47174;DHT22;36730;49.036;9.094;2023-05-29T12:17:19;29.00;45.20
47174;DHT22;36730;49.036;9.094;2023-05-29T12:19:44;29.00;45.10
47174;DHT22;36730;49.036;9.094;2023-05-29T12:22:10;29.00;45.00
47174;DHT22;36730;49.036;9.094;2023-05-29T12:24:35;29.00;44.90
47174;DHT22;36730;49.036;9.094;2023-05-29T12:27:03;29.10;44.90
47174;DHT22;36730;49.036;9.094;2023-05-29T12:29:32;29.10;44.80
47174;DHT22;36730;49.036;9.094;2023-05-29T12:31:58;29.10;44.70
47174;DHT22;36730;49.036;9.094;2023-05-29T12:34:24;29.10;44.60
47174;DHT22;36730;49.036;9.094;2023-05-29T12:36:49;29.10;44.50
47174;DHT22;36730;49.036;9.094;2023-05-29T12:39:15;29.20;44.50
47174;DHT22;36730;49.036;9.094;2023-05-29T12:41:40;29.20;44.40
47174;DHT22;36730;49.036;9.094;2023-05-29T12:44:06;29.20;44.30
47174;DHT22;36730;49.036;9.094;2023-05-29T12:46:36;29.20;44.30
47174;DHT22;36730;49.036;9.094;2023-05-29T12:51:39;29.30;44.20
47174;DHT22;36730;49.036;9.094;2023-05-29T12:54:05;29.30;44.10
47174;DHT22;36730;49.036;9.094;2023-05-29T12:56:30;29.30;44.00
47174;DHT22;36730;49.036;9.094;2023-05-29T12:58:56;29.30;43.90
47174;DHT22;36730;49.036;9.094;2023-05-29T13:01:21;29.30;43.80
47174;DHT22;36730;49.036;9.094;2023-05-29T13:03:48;29.30;43.70
47174;DHT22;36730;49.036;9.094;2023-05-29T13:06:14;29.30;43.60
47174;DHT22;36730;49.036;9.094;2023-05-29T13:08:39;29.40;43.60
47174;DHT22;36730;49.036;9.094;2023-05-29T13:11:05;29.40;43.50
47174;DHT22;36730;49.036;9.094;2023-05-29T13:13:30;29.40;43.50
47174;DHT22;36730;49.036;9.094;2023-05-29T13:15:56;29.40;43.30
47174;DHT22;36730;49.036;9.094;2023-05-29T13:18:21;29.40;43.30
47174;DHT22;36730;49.036;9.094;2023-05-29T13:20:47;29.40;43.30
47174;DHT22;36730;49.036;9.094;2023-05-29T13:23:12;29.50;43.20
47174;DHT22;36730;49.036;9.094;2023-05-29T13:25:38;29.50;43.20
47174;DHT22;36730;49.036;9.094;2023-05-29T13:28:03;29.50;43.10
47174;DHT22;36730;49.036;9.094;2023-05-29T13:30:29;29.50;43.10
47174;DHT22;36730;49.036;9.094;2023-05-29T13:32:54;29.60;43.00
47174;DHT22;36730;49.036;9.094;2023-05-29T13:35:20;29.60;43.00
47174;DHT22;36730;49.036;9.094;2023-05-29T13:37:45;29.50;42.90
47174;DHT22;36730;49.036;9.094;2023-05-29T13:40:11;29.60;42.80
47174;DHT22;36730;49.036;9.094;2023-05-29T13:42:38;29.60;42.80
47174;DHT22;36730;49.036;9.094;2023-05-29T13:45:04;29.60;42.80
47174;DHT22;36730;49.036;9.094;2023-05-29T13:47:31;29.60;42.70
47174;DHT22;36730;49.036;9.094;2023-05-29T13:49:57;29.60;42.60
47174;DHT22;36730;49.036;9.094;2023-05-29T13:52:23;29.70;42.70
47174;DHT22;36730;49.036;9.094;2023-05-29T13:54:48;29.60;42.60
47174;DHT22;36730;49.036;9.094;2023-05-29T13:57:14;29.70;42.60
47174;DHT22;36730;49.036;9.094;2023-05-29T13:59:39;29.70;42.50
47174;DHT22;36730;49.036;9.094;2023-05-29T14:02:05;29.70;42.50
47174;DHT22;36730;49.036;9.094;2023-05-29T14:04:31;29.70;42.50
47174;DHT22;36730;49.036;9.094;2023-05-29T14:06:56;29.70;42.40
47174;DHT22;36730;49.036;9.094;2023-05-29T14:09:22;29.70;42.40
47174;DHT22;36730;49.036;9.094;2023-05-29T14:11:56;29.70;42.30
47174;DHT22;36730;49.036;9.094;2023-05-29T14:14:22;29.80;42.30
47174;DHT22;36730;49.036;9.094;2023-05-29T14:16:48;29.80;42.30
47174;DHT22;36730;49.036;9.094;2023-05-29T14:19:13;29.80;42.30
47174;DHT22;36730;49.036;9.094;2023-05-29T14:21:39;29.80;42.20
47174;DHT22;36730;49.036;9.094;2023-05-29T14:24:04;29.80;42.10
47174;DHT22;36730;49.036;9.094;2023-05-29T14:26:30;29.80;42.10
47174;DHT22;36730;49.036;9.094;2023-05-29T14:28:55;29.80;42.10
47174;DHT22;36730;49.036;9.094;2023-05-29T14:31:21;29.80;42.10
47174;DHT22;36730;49.036;9.094;2023-05-29T14:33:46;29.80;42.10
47174;DHT22;36730;49.036;9.094;2023-05-29T14:36:12;29.90;42.10
47174;DHT22;36730;49.036;9.094;2023-05-29T14:38:38;29.80;42.00
47174;DHT22;36730;49.036;9.094;2023-05-29T14:41:03;29.90;42.00
47174;DHT22;36730;49.036;9.094;2023-05-29T14:43:29;29.90;42.00
47174;DHT22;36730;49.036;9.094;2023-05-29T14:45:54;29.90;41.90
47174;DHT22;36730;49.036;9.094;2023-05-29T14:48:20;29.90;41.90
47174;DHT22;36730;49.036;9.094;2023-05-29T14:50:46;29.90;41.80
47174;DHT22;36730;49.036;9.094;2023-05-29T14:53:11;29.90;41.80
47174;DHT22;36730;49.036;9.094;2023-05-29T14:55:37;29.90;41.80
47174;DHT22;36730;49.036;9.094;2023-05-29T14:58:06;30.00;41.90
47174;DHT22;36730;49.036;9.094;2023-05-29T15:00:31;29.90;41.80
47174;DHT22;36730;49.036;9.094;2023-05-29T15:02:57;29.90;41.70
47174;DHT22;36730;49.036;9.094;2023-05-29T15:05:27;29.90;41.70
47174;DHT22;36730;49.036;9.094;2023-05-29T15:07:53;30.00;41.80
47174;DHT22;36730;49.036;9.094;2023-05-29T15:10:24;30.00;41.80
47174;DHT22;36730;49.036;9.094;2023-05-29T15:12:51;30.00;41.70
47174;DHT22;36730;49.036;9.094;2023-05-29T15:15:25;30.00;41.70
47174;DHT22;36730;49.036;9.094;2023-05-29T15:17:51;30.00;41.70
47174;DHT22;36730;49.036;9.094;2023-05-29T15:20:21;30.00;41.70
47174;DHT22;36730;49.036;9.094;2023-05-29T15:22:46;30.00;41.70
47174;DHT22;36730;49.036;9.094;2023-05-29T15:25:13;30.00;41.70
47174;DHT22;36730;49.036;9.094;2023-05-29T15:27:39;30.00;41.70
47174;DHT22;36730;49.036;9.094;2023-05-29T15:30:08;30.00;41.60
47174;DHT22;36730;49.036;9.094;2023-05-29T15:32:34;30.00;41.60
47174;DHT22;36730;49.036;9.094;2023-05-29T15:35:00;30.00;41.60
47174;DHT22;36730;49.036;9.094;2023-05-29T15:37:25;30.00;41.50
47174;DHT22;36730;49.036;9.094;2023-05-29T15:39:51;30.00;41.60
47174;DHT22;36730;49.036;9.094;2023-05-29T15:42:16;30.00;41.50
47174;DHT22;36730;49.036;9.094;2023-05-29T15:44:42;30.00;41.50
47174;DHT22;36730;49.036;9.094;2023-05-29T15:47:07;30.00;41.50
47174;DHT22;36730;49.036;9.094;2023-05-29T15:49:32;30.00;41.50
47174;DHT22;36730;49.036;9.094;2023-05-29T15:51:58;30.00;41.60